Time;durP1;ratioP1;P1;durP2;ratioP2;P2;SDS_P1;SDS_P2;PMS_P1;PMS_P2;Temp;Humidity;BMP_temperature;BMP_pressure;BME280_temperature;BME280_humidity;BME280_pressure;Samples;Min_cycle;Max_cycle;Signal;HPM_P1;HPM_P2
2022/11/10 00:02:04;;;;;;;3.17;2.10;;;8.90;99.90;;;;;;5022136;28;20520;-83
2022/11/10 00:04:30;;;;;;;1.70;0.98;;;8.90;99.90;;;;;;5050783;28;20134;-83
2022/11/10 00:06:55;;;;;;;1.00;0.82;;;8.90;99.90;;;;;;5071529;28;20071;-83
2022/11/10 00:09:21;;;;;;;4.95;1.02;;;8.80;99.90;;;;;;5072057;28;20149;-83
2022/11/10 00:11:47;;;;;;;6.57;0.77;;;8.80;99.90;;;;;;5034089;28;20048;-83
2022/11/10 00:17:05;;;;;;;2.58;1.15;;;8.80;99.90;;;;;;5028655;28;20573;-83
2022/11/10 00:19:32;;;;;;;12.05;1.38;;;8.80;99.90;;;;;;5046209;28;20068;-82
2022/11/10 00:21:59;;;;;;;3.17;1.40;;;8.80;99.90;;;;;;5071032;28;20084;-82
2022/11/10 00:24:25;;;;;;;2.13;0.85;;;8.80;99.90;;;;;;5038197;28;20479;-83
2022/11/10 00:26:51;;;;;;;3.80;1.33;;;8.80;99.90;;;;;;5022593;28;20076;-82
2022/11/10 00:29:16;;;;;;;3.10;0.77;;;8.70;99.90;;;;;;5056960;28;20126;-82
2022/11/10 00:31:42;;;;;;;10.35;1.40;;;8.70;99.90;;;;;;5057547;28;20047;-82
2022/11/10 00:34:12;;;;;;;4.15;1.33;;;8.70;99.90;;;;;;5034625;28;20145;-83
2022/11/10 00:36:38;;;;;;;1.27;1.17;;;8.70;99.90;;;;;;5035521;28;20128;-83
2022/11/10 00:39:04;;;;;;;5.15;1.15;;;8.70;99.90;;;;;;5059397;28;20045;-83
2022/11/10 00:41:30;;;;;;;4.22;0.90;;;8.70;99.90;;;;;;5034622;28;20114;-86
2022/11/10 00:43:55;;;;;;;2.15;1.08;;;8.70;99.90;;;;;;5050185;28;20068;-84
2022/11/10 00:46:21;;;;;;;6.57;1.38;;;8.70;99.90;;;;;;5037375;28;20422;-83
2022/11/10 00:48:47;;;;;;;3.40;1.40;;;8.70;99.90;;;;;;5069291;28;20123;-84
2022/11/10 00:51:28;;;;;;;2.20;0.65;;;8.60;99.90;;;;;;5048037;28;20121;-82
2022/11/10 00:53:54;;;;;;;6.72;1.38;;;8.70;99.90;;;;;;5061989;28;20037;-82
2022/11/10 00:56:21;;;;;;;0.52;0.50;;;8.70;99.90;;;;;;5042782;28;20041;-83
2022/11/10 00:58:47;;;;;;;2.03;1.05;;;8.70;99.90;;;;;;5064574;28;20406;-82
2022/11/10 01:01:14;;;;;;;2.42;1.08;;;8.60;99.90;;;;;;5031205;28;20056;-83
2022/11/10 01:03:40;;;;;;;12.85;1.67;;;8.60;99.90;;;;;;5037042;28;20119;-82
2022/11/10 01:06:15;;;;;;;2.28;1.38;;;8.60;99.90;;;;;;5066934;28;20147;-83
2022/11/10 01:08:42;;;;;;;2.55;1.33;;;8.60;99.90;;;;;;5068263;28;20052;-82
2022/11/10 01:11:11;;;;;;;1.10;0.85;;;8.60;99.90;;;;;;5050256;28;20148;-82
2022/11/10 01:13:37;;;;;;;5.60;1.38;;;8.50;99.90;;;;;;5036478;28;20063;-83
2022/11/10 01:16:08;;;;;;;2.63;1.00;;;8.50;99.90;;;;;;5071774;28;20483;-83
2022/11/10 01:18:34;;;;;;;3.05;1.13;;;8.50;99.90;;;;;;5054354;28;20563;-82
2022/11/10 01:21:00;;;;;;;2.30;1.33;;;8.40;99.90;;;;;;5053245;28;20044;-82
2022/11/10 01:23:26;;;;;;;2.72;1.55;;;8.50;99.90;;;;;;5063904;28;20053;-83
2022/11/10 01:25:55;;;;;;;7.30;2.00;;;8.50;99.90;;;;;;5058597;28;20044;-82
2022/11/10 01:28:21;;;;;;;8.55;1.85;;;8.50;99.90;;;;;;5052824;28;20047;-82
2022/11/10 01:30:47;;;;;;;3.58;1.38;;;8.50;99.90;;;;;;5049474;28;20036;-84
2022/11/10 01:33:12;;;;;;;4.75;1.20;;;8.50;99.90;;;;;;5062397;28;20091;-83
2022/11/10 01:35:38;;;;;;;2.40;1.20;;;8.50;99.90;;;;;;5021426;28;20056;-82
2022/11/10 01:38:04;;;;;;;1.17;0.90;;;8.40;99.90;;;;;;5022580;28;20049;-83
2022/11/10 01:40:30;;;;;;;4.50;1.40;;;8.40;99.90;;;;;;5049204;28;20071;-83
2022/11/10 01:42:57;;;;;;;5.18;2.28;;;8.50;99.90;;;;;;5044975;28;20535;-85
2022/11/10 01:45:23;;;;;;;3.22;1.52;;;8.50;99.90;;;;;;5054715;28;20060;-82
2022/11/10 01:47:58;;;;;;;2.58;1.73;;;8.40;99.90;;;;;;5057922;28;20049;-84
2022/11/10 01:50:28;;;;;;;2.92;1.30;;;8.50;99.90;;;;;;5049543;28;20052;-82
2022/11/10 01:52:56;;;;;;;1.48;0.95;;;8.50;99.90;;;;;;5037403;28;20041;-82
2022/11/10 01:55:23;;;;;;;3.33;1.40;;;8.40;99.90;;;;;;5063715;28;20041;-83
2022/11/10 01:57:49;;;;;;;6.70;1.23;;;8.40;99.90;;;;;;5075230;28;20040;-85
2022/11/10 02:00:16;;;;;;;3.90;1.80;;;8.40;99.90;;;;;;5039752;28;20136;-83
2022/11/10 02:02:51;;;;;;;1.92;1.55;;;8.40;99.90;;;;;;5047432;28;20053;-82
2022/11/10 02:05:18;;;;;;;6.15;1.15;;;8.40;99.90;;;;;;5061497;28;20075;-82
2022/11/10 02:07:44;;;;;;;2.35;1.08;;;8.40;99.90;;;;;;5050372;28;20080;-82
2022/11/10 02:10:15;;;;;;;3.58;1.80;;;8.40;99.90;;;;;;5035630;28;20063;-82
2022/11/10 02:12:42;;;;;;;1.63;1.17;;;8.40;99.90;;;;;;5040438;28;20056;-83
2022/11/10 02:15:11;;;;;;;3.13;1.35;;;8.50;99.90;;;;;;5074135;28;20081;-83
2022/11/10 02:17:37;;;;;;;5.65;1.38;;;8.50;99.90;;;;;;5037187;28;20080;-82
2022/11/10 02:20:09;;;;;;;4.55;1.02;;;8.50;99.90;;;;;;5055233;28;20088;-84
2022/11/10 02:22:36;;;;;;;9.40;1.27;;;8.50;99.90;;;;;;5054804;28;20045;-82
2022/11/10 02:25:02;;;;;;;2.35;1.30;;;8.50;99.90;;;;;;5055356;28;20601;-82
2022/11/10 02:27:29;;;;;;;3.13;0.82;;;8.60;99.90;;;;;;5041378;28;20040;-83
2022/11/10 02:29:55;;;;;;;7.05;1.55;;;8.60;99.90;;;;;;5026994;28;20048;-82
2022/11/10 02:32:21;;;;;;;13.82;1.25;;;8.70;99.90;;;;;;5065951;28;20045;-83
2022/11/10 02:34:47;;;;;;;2.72;1.10;;;8.70;99.90;;;;;;5049254;28;20047;-82
2022/11/10 02:37:12;;;;;;;7.88;1.52;;;8.80;99.90;;;;;;5068666;28;20040;-82
2022/11/10 02:39:38;;;;;;;5.45;1.55;;;8.80;99.90;;;;;;5067273;28;20353;-82
2022/11/10 02:42:09;;;;;;;2.22;1.27;;;8.80;99.90;;;;;;5022871;28;20072;-83
2022/11/10 02:44:38;;;;;;;5.78;1.73;;;8.80;99.90;;;;;;5056285;28;20569;-82
2022/11/10 02:47:05;;;;;;;3.33;1.33;;;8.80;99.90;;;;;;5059830;28;20103;-83
2022/11/10 02:49:30;;;;;;;5.78;2.70;;;8.80;99.90;;;;;;5043087;28;20540;-81
2022/11/10 02:51:56;;;;;;;1.83;1.17;;;8.80;99.90;;;;;;5063312;28;20041;-82
2022/11/10 02:54:22;;;;;;;3.28;1.10;;;8.80;99.90;;;;;;5033595;28;20501;-83
2022/11/10 02:56:48;;;;;;;1.88;1.30;;;8.90;99.90;;;;;;5067279;28;20128;-82
2022/11/10 02:59:13;;;;;;;8.63;2.40;;;8.90;99.90;;;;;;5040356;28;20072;-85
2022/11/10 03:01:39;;;;;;;7.53;2.50;;;8.90;99.90;;;;;;5055499;28;20087;-82
2022/11/10 03:04:05;;;;;;;4.00;1.52;;;8.90;99.90;;;;;;5073562;28;20124;-81
2022/11/10 03:06:31;;;;;;;2.20;1.58;;;8.90;99.90;;;;;;5034172;28;20399;-82
2022/11/10 03:08:57;;;;;;;14.57;2.53;;;8.90;99.90;;;;;;5039341;28;20511;-82
2022/11/10 03:11:23;;;;;;;7.60;2.67;;;8.90;99.90;;;;;;5067827;28;20048;-82
2022/11/10 03:13:49;;;;;;;11.82;3.47;;;9.00;99.90;;;;;;5029168;28;20052;-82
2022/11/10 03:16:15;;;;;;;3.63;2.28;;;9.00;99.90;;;;;;5061656;28;20052;-83
2022/11/10 03:18:41;;;;;;;5.00;2.28;;;8.90;99.90;;;;;;5046898;28;20061;-82
2022/11/10 03:21:06;;;;;;;4.60;1.90;;;8.90;99.90;;;;;;5029434;28;20060;-82
2022/11/10 03:23:33;;;;;;;5.53;1.95;;;8.90;99.90;;;;;;5056065;28;20475;-82
2022/11/10 03:25:59;;;;;;;10.30;3.58;;;8.90;99.90;;;;;;5066561;28;20091;-82
2022/11/10 03:28:24;;;;;;;6.90;2.53;;;8.90;99.90;;;;;;5068039;28;20448;-83
2022/11/10 03:30:50;;;;;;;7.25;4.07;;;8.90;99.90;;;;;;5070991;28;20053;-82
2022/11/10 03:33:16;;;;;;;4.10;2.03;;;8.90;99.90;;;;;;5055818;28;20056;-82
2022/11/10 03:35:42;;;;;;;14.00;5.03;;;8.90;99.90;;;;;;5073158;28;20506;-83
2022/11/10 03:38:07;;;;;;;7.30;1.65;;;8.80;99.90;;;;;;5020708;28;20501;-82
2022/11/10 03:40:33;;;;;;;1.42;1.30;;;8.80;99.90;;;;;;5050619;28;20091;-92
2022/11/10 03:42:59;;;;;;;7.18;2.97;;;8.90;99.90;;;;;;5043256;28;20050;-82
2022/11/10 03:45:24;;;;;;;7.07;2.80;;;8.80;99.90;;;;;;5047992;28;20044;-83
2022/11/10 03:47:50;;;;;;;5.68;2.78;;;8.80;99.90;;;;;;5031724;28;20036;-82
2022/11/10 03:50:16;;;;;;;7.65;2.67;;;8.80;99.90;;;;;;5061900;28;20040;-84
2022/11/10 03:52:43;;;;;;;6.00;2.25;;;8.80;99.90;;;;;;5038124;28;20060;-86
2022/11/10 03:55:12;;;;;;;5.38;2.33;;;8.80;99.90;;;;;;5048179;28;20423;-83
2022/11/10 03:57:37;;;;;;;4.55;2.13;;;8.80;99.90;;;;;;5064321;28;20035;-83
2022/11/10 04:00:04;;;;;;;7.97;1.77;;;8.90;99.90;;;;;;5025986;28;20049;-82
2022/11/10 04:02:30;;;;;;;5.97;3.03;;;8.80;99.90;;;;;;5046895;28;20174;-88
2022/11/10 04:10:24;;;;;;;8.48;2.85;;;8.80;99.90;;;;;;5046723;28;20048;-82
2022/11/10 04:15:44;;;;;;;8.27;2.67;;;8.80;99.90;;;;;;5044423;28;20049;-82
2022/11/10 04:18:19;;;;;;;3.20;1.95;;;8.90;99.90;;;;;;5026997;28;20047;-83
2022/11/10 04:20:46;;;;;;;5.05;3.22;;;8.90;99.90;;;;;;5040678;28;20049;-85
2022/11/10 04:23:33;;;;;;;9.50;2.78;;;9.00;99.90;;;;;;5044775;28;20065;-83
2022/11/10 04:26:30;;;;;;;6.30;2.95;;;8.90;99.90;;;;;;5042566;28;20123;-84
2022/11/10 04:29:01;;;;;;;4.53;2.03;;;9.00;99.90;;;;;;5050148;28;20572;-82
2022/11/10 04:31:29;;;;;;;6.70;2.33;;;9.00;99.90;;;;;;5040914;28;20512;-82
2022/11/10 04:33:56;;;;;;;11.88;3.22;;;9.00;99.90;;;;;;5026638;28;20040;-83
2022/11/10 04:36:25;;;;;;;10.50;3.72;;;9.00;99.90;;;;;;5028245;28;20055;-82
2022/11/10 04:38:50;;;;;;;5.97;2.72;;;9.00;99.90;;;;;;5041394;28;20052;-83
2022/11/10 04:41:16;;;;;;;8.10;3.17;;;9.00;99.90;;;;;;5041354;28;20071;-82
2022/11/10 04:43:43;;;;;;;13.65;3.25;;;9.00;99.90;;;;;;5045622;28;20057;-87
2022/11/10 04:46:26;;;;;;;7.45;2.83;;;9.00;99.90;;;;;;5058897;28;20179;-82
2022/11/10 04:48:53;;;;;;;6.18;3.45;;;9.00;99.90;;;;;;5038998;28;20372;-82
2022/11/10 04:51:21;;;;;;;6.95;3.47;;;9.00;99.90;;;;;;5047969;28;20052;-82
2022/11/10 04:53:47;;;;;;;3.85;2.33;;;9.00;99.90;;;;;;5065330;28;20060;-82
2022/11/10 04:56:20;;;;;;;6.80;3.10;;;9.00;99.90;;;;;;5054951;28;20454;-81
2022/11/10 04:58:46;;;;;;;3.13;2.10;;;9.00;99.90;;;;;;5070262;28;20507;-83
2022/11/10 05:01:15;;;;;;;8.57;2.72;;;9.00;99.90;;;;;;5049967;28;20044;-81
2022/11/10 05:03:42;;;;;;;15.27;3.08;;;9.00;99.90;;;;;;5071759;28;20495;-82
2022/11/10 05:06:08;;;;;;;7.63;2.92;;;9.00;99.90;;;;;;5051637;28;20048;-82
2022/11/10 05:08:35;;;;;;;9.80;3.10;;;9.10;99.90;;;;;;5068989;28;20055;-82
2022/11/10 05:11:01;;;;;;;10.07;3.42;;;9.10;99.90;;;;;;5052807;28;20063;-82
2022/11/10 05:13:27;;;;;;;5.65;2.05;;;9.10;99.90;;;;;;5072201;28;20045;-83
2022/11/10 05:15:52;;;;;;;8.88;2.55;;;9.10;99.90;;;;;;5075288;28;20480;-82
2022/11/10 05:18:18;;;;;;;9.05;3.78;;;9.10;99.90;;;;;;5076175;28;20047;-82
2022/11/10 05:20:44;;;;;;;5.47;2.88;;;9.10;99.90;;;;;;5070988;28;20076;-81
2022/11/10 05:25:54;;;;;;;4.68;2.00;;;9.10;99.90;;;;;;5056710;28;20068;-82
2022/11/10 05:28:19;;;;;;;7.75;2.58;;;9.10;99.90;;;;;;5054134;28;20049;-83
2022/11/10 05:30:45;;;;;;;5.28;2.95;;;9.10;99.90;;;;;;5035222;28;20133;-82
2022/11/10 05:33:11;;;;;;;5.70;2.90;;;9.10;99.90;;;;;;5042362;28;20044;-82
2022/11/10 05:35:38;;;;;;;3.60;2.30;;;9.10;99.90;;;;;;5038171;28;20460;-82
2022/11/10 05:38:04;;;;;;;8.88;3.22;;;9.10;99.90;;;;;;5070825;28;20109;-80
2022/11/10 05:40:30;;;;;;;8.07;3.70;;;9.10;99.90;;;;;;5078298;28;20123;-81
2022/11/10 05:42:56;;;;;;;6.15;3.40;;;9.10;99.90;;;;;;5080548;28;20612;-84
2022/11/10 05:45:25;;;;;;;8.27;3.45;;;9.10;99.90;;;;;;5080220;28;20067;-80
2022/11/10 05:47:51;;;;;;;5.47;2.47;;;9.10;99.90;;;;;;5061952;28;20080;-82
2022/11/10 05:50:18;;;;;;;16.42;3.47;;;9.10;99.90;;;;;;5064463;28;20501;-82
2022/11/10 05:52:47;;;;;;;6.13;2.60;;;9.10;99.90;;;;;;5081847;28;20083;-81
2022/11/10 05:55:13;;;;;;;4.63;2.72;;;9.10;99.90;;;;;;5062843;28;20498;-81
2022/11/10 05:57:47;;;;;;;14.73;3.60;;;9.10;99.90;;;;;;5047320;28;20045;-82
2022/11/10 06:00:15;;;;;;;6.05;2.97;;;9.10;99.90;;;;;;5062497;28;20056;-82
2022/11/10 06:02:42;;;;;;;4.30;2.53;;;9.10;99.90;;;;;;5049998;28;20091;-82
2022/11/10 06:05:08;;;;;;;8.50;3.65;;;9.10;99.90;;;;;;5054590;28;20060;-82
2022/11/10 06:07:35;;;;;;;8.27;3.40;;;9.10;99.90;;;;;;5075594;28;20391;-81
2022/11/10 06:10:00;;;;;;;4.88;2.78;;;9.00;99.90;;;;;;5075234;28;20453;-81
2022/11/10 06:12:29;;;;;;;13.73;3.00;;;9.00;99.90;;;;;;5067210;28;20041;-82
2022/11/10 06:14:56;;;;;;;5.50;2.28;;;9.00;99.90;;;;;;5057614;28;20048;-83
2022/11/10 06:17:23;;;;;;;7.28;3.75;;;9.10;99.90;;;;;;5055260;28;20036;-83
2022/11/10 06:19:49;;;;;;;11.90;3.70;;;9.00;99.90;;;;;;5055310;28;20048;-81
2022/11/10 06:22:14;;;;;;;7.35;3.50;;;9.10;99.90;;;;;;5054999;28;20043;-82
2022/11/10 06:24:40;;;;;;;7.80;2.53;;;9.00;99.90;;;;;;5073267;28;20041;-82
2022/11/10 06:27:06;;;;;;;6.65;3.45;;;9.10;99.90;;;;;;5029099;28;20053;-84
2022/11/10 06:29:32;;;;;;;6.95;2.38;;;9.00;99.90;;;;;;5038830;28;20047;-82
2022/11/10 06:31:58;;;;;;;12.35;3.50;;;9.00;99.90;;;;;;5059841;28;20114;-82
2022/11/10 06:34:23;;;;;;;9.05;2.35;;;9.00;99.90;;;;;;5039615;28;20484;-82
2022/11/10 06:36:49;;;;;;;8.32;2.92;;;9.00;99.90;;;;;;5074742;28;20044;-82
2022/11/10 06:39:15;;;;;;;7.18;3.00;;;9.00;99.90;;;;;;5047912;28;20059;-82
2022/11/10 06:41:41;;;;;;;12.43;3.35;;;9.00;99.90;;;;;;5056460;28;20049;-82
2022/11/10 06:44:06;;;;;;;7.18;3.17;;;8.90;99.90;;;;;;5039856;28;20118;-84
2022/11/10 06:46:32;;;;;;;9.07;2.55;;;8.90;99.90;;;;;;5056396;28;20260;-82
2022/11/10 06:48:58;;;;;;;11.13;3.13;;;8.90;99.90;;;;;;5051475;28;20044;-84
2022/11/10 06:51:24;;;;;;;8.20;2.72;;;8.90;99.90;;;;;;5072274;28;20041;-85
2022/11/10 06:53:50;;;;;;;18.58;5.35;;;8.90;99.90;;;;;;5053469;28;20047;-82
2022/11/10 06:56:15;;;;;;;11.48;2.45;;;8.90;99.90;;;;;;5066762;28;20506;-84
2022/11/10 06:58:41;;;;;;;13.80;2.72;;;8.90;99.90;;;;;;5048441;28;20048;-82
2022/11/10 07:01:07;;;;;;;6.07;2.80;;;8.90;99.90;;;;;;5064148;28;20053;-81
2022/11/10 07:03:32;;;;;;;9.10;3.00;;;8.90;99.90;;;;;;5064851;28;20041;-82
2022/11/10 07:05:58;;;;;;;8.50;2.97;;;8.90;99.90;;;;;;5065695;28;20043;-85
2022/11/10 07:08:24;;;;;;;4.60;2.33;;;8.80;99.90;;;;;;5052227;28;20048;-83
2022/11/10 07:10:52;;;;;;;6.05;3.78;;;8.90;99.90;;;;;;5041278;28;20381;-83
2022/11/10 07:13:18;;;;;;;18.85;4.63;;;8.90;99.90;;;;;;5033494;28;20047;-83
2022/11/10 07:15:44;;;;;;;8.95;3.08;;;8.90;99.90;;;;;;5061560;28;20440;-84
2022/11/10 07:18:10;;;;;;;10.50;3.55;;;8.90;99.90;;;;;;5051755;28;20040;-83
2022/11/10 07:20:35;;;;;;;8.80;3.90;;;8.90;99.90;;;;;;5068393;28;20052;-83
2022/11/10 07:23:03;;;;;;;7.80;3.80;;;9.00;99.90;;;;;;5051079;28;20051;-84
2022/11/10 07:25:31;;;;;;;9.55;4.15;;;9.10;99.90;;;;;;5066991;28;20045;-84
2022/11/10 07:27:59;;;;;;;4.38;3.53;;;9.20;99.90;;;;;;5065514;28;20040;-85
2022/11/10 07:30:27;;;;;;;8.95;3.60;;;9.20;99.90;;;;;;5064021;28;20488;-84
2022/11/10 07:33:00;;;;;;;4.63;2.97;;;9.30;99.90;;;;;;5025850;28;20369;-84
2022/11/10 07:35:27;;;;;;;5.00;3.38;;;9.30;99.90;;;;;;5047989;28;20080;-84
2022/11/10 07:37:54;;;;;;;6.60;4.30;;;9.40;99.90;;;;;;5061660;28;20462;-82
2022/11/10 07:40:21;;;;;;;13.13;4.30;;;9.40;99.90;;;;;;5065733;28;20051;-82
2022/11/10 07:42:46;;;;;;;7.68;4.32;;;9.40;99.90;;;;;;5065615;28;20424;-82
2022/11/10 07:45:12;;;;;;;12.25;3.72;;;9.50;99.90;;;;;;5063292;28;20175;-85
2022/11/10 07:47:38;;;;;;;8.93;3.15;;;9.40;99.90;;;;;;5048368;28;20533;-83
2022/11/10 07:50:04;;;;;;;8.90;5.15;;;9.40;99.90;;;;;;5062276;28;20136;-84
2022/11/10 07:52:30;;;;;;;13.50;4.95;;;9.50;99.90;;;;;;5046001;28;20079;-83
2022/11/10 07:54:55;;;;;;;7.35;3.67;;;9.50;99.90;;;;;;5067175;28;20475;-83
2022/11/10 07:57:21;;;;;;;12.52;4.22;;;9.50;99.90;;;;;;5044023;28;20535;-85
2022/11/10 07:59:47;;;;;;;13.25;4.60;;;9.50;99.90;;;;;;5066281;28;20534;-83
2022/11/10 08:02:12;;;;;;;7.53;2.55;;;9.50;99.90;;;;;;5025942;28;20464;-84
2022/11/10 08:04:38;;;;;;;17.10;4.90;;;9.50;99.90;;;;;;5064617;28;20102;-83
2022/11/10 08:07:04;;;;;;;10.05;3.53;;;9.60;99.90;;;;;;5029003;28;20087;-85
2022/11/10 08:09:29;;;;;;;12.50;5.85;;;9.60;99.90;;;;;;5048234;28;20052;-84
2022/11/10 08:11:55;;;;;;;7.55;3.13;;;9.60;99.90;;;;;;5043543;28;20055;-82
2022/11/10 08:14:21;;;;;;;7.82;3.67;;;9.60;99.90;;;;;;5041750;28;20041;-82
2022/11/10 08:16:46;;;;;;;13.63;5.32;;;9.70;99.90;;;;;;5044398;28;20458;-83
2022/11/10 08:19:12;;;;;;;3.25;2.78;;;9.70;99.90;;;;;;5065692;28;20052;-82
2022/11/10 08:21:38;;;;;;;11.43;3.90;;;9.70;99.90;;;;;;5063503;28;20119;-84
2022/11/10 08:24:04;;;;;;;7.65;3.65;;;9.80;99.90;;;;;;5047288;28;20086;-83
2022/11/10 08:26:29;;;;;;;6.40;3.03;;;9.80;99.90;;;;;;5042492;28;20048;-81
2022/11/10 08:28:55;;;;;;;10.60;4.68;;;9.90;99.90;;;;;;5045850;28;20130;-83
2022/11/10 08:31:21;;;;;;;26.17;4.35;;;10.00;99.90;;;;;;5058848;28;20082;-81
2022/11/10 08:33:47;;;;;;;4.72;2.85;;;10.10;99.90;;;;;;5063271;28;20048;-83
2022/11/10 08:36:13;;;;;;;12.70;3.50;;;10.20;99.90;;;;;;5031676;28;20491;-83
2022/11/10 08:38:38;;;;;;;14.38;3.70;;;10.30;99.90;;;;;;5060062;28;20045;-81
2022/11/10 08:41:04;;;;;;;5.70;4.00;;;10.40;99.90;;;;;;5045103;28;20047;-86
2022/11/10 08:43:30;;;;;;;12.52;3.90;;;10.50;99.90;;;;;;5038652;28;20688;-82
2022/11/10 08:45:56;;;;;;;11.65;2.60;;;10.70;99.90;;;;;;5065981;28;20372;-84
2022/11/10 08:48:22;;;;;;;12.10;3.20;;;10.80;99.90;;;;;;5062115;28;20461;-82
2022/11/10 08:50:48;;;;;;;6.50;3.15;;;10.90;99.90;;;;;;5059081;28;20101;-81
2022/11/10 08:53:16;;;;;;;15.35;3.13;;;10.90;99.90;;;;;;5042811;28;20037;-84
2022/11/10 08:55:45;;;;;;;6.45;3.28;;;11.00;99.90;;;;;;5046990;28;20173;-82
2022/11/10 08:58:16;;;;;;;9.68;3.00;;;11.20;99.90;;;;;;5069853;28;20049;-82
2022/11/10 09:00:42;;;;;;;12.40;3.33;;;11.20;99.90;;;;;;5052664;28;20040;-84
2022/11/10 09:03:12;;;;;;;10.68;2.50;;;11.20;99.90;;;;;;5070240;28;20058;-82
2022/11/10 09:05:38;;;;;;;13.32;2.70;;;11.20;99.90;;;;;;5065144;28;20040;-82
2022/11/10 09:08:05;;;;;;;4.22;2.35;;;11.20;99.90;;;;;;5064229;28;20484;-82
2022/11/10 09:10:37;;;;;;;4.13;1.92;;;11.20;99.90;;;;;;5062655;28;20611;-83
2022/11/10 09:13:03;;;;;;;6.57;2.75;;;11.20;99.90;;;;;;5065285;28;20120;-83
2022/11/10 09:15:30;;;;;;;5.97;2.20;;;11.30;99.90;;;;;;5064609;28;20036;-82
2022/11/10 09:18:00;;;;;;;7.32;2.47;;;11.40;99.90;;;;;;5059536;28;20814;-81
2022/11/10 09:20:27;;;;;;;5.53;2.15;;;11.50;99.90;;;;;;5069214;28;20107;-83
2022/11/10 09:22:53;;;;;;;3.83;1.48;;;11.80;99.90;;;;;;5049236;28;20076;-82
2022/11/10 09:25:19;;;;;;;12.93;2.70;;;12.10;99.90;;;;;;5049877;28;20149;-82
2022/11/10 09:27:44;;;;;;;7.53;2.50;;;12.40;99.90;;;;;;5049413;28;20044;-84
2022/11/10 09:30:11;;;;;;;10.48;2.45;;;12.70;99.90;;;;;;5064162;28;20040;-84
2022/11/10 09:32:36;;;;;;;15.00;2.55;;;13.00;99.90;;;;;;5064160;28;20044;-82
2022/11/10 09:35:03;;;;;;;7.82;2.65;;;13.10;99.90;;;;;;5046440;28;20099;-85
2022/11/10 09:37:29;;;;;;;2.95;2.13;;;13.10;99.90;;;;;;5064651;28;20037;-81
2022/11/10 09:39:55;;;;;;;6.88;2.30;;;13.00;99.90;;;;;;5066514;28;20384;-82
2022/11/10 09:42:31;;;;;;;2.90;2.00;;;12.90;99.90;;;;;;5067565;28;20044;-81
2022/11/10 09:45:18;;;;;;;12.25;2.55;;;12.80;99.90;;;;;;5045423;28;20057;-82
2022/11/10 09:48:12;;;;;;;5.47;2.05;;;12.70;99.90;;;;;;5048373;28;20457;-81
2022/11/10 09:50:52;;;;;;;4.57;2.00;;;12.70;99.90;;;;;;5057352;28;20075;-83
2022/11/10 09:53:32;;;;;;;8.73;2.45;;;12.60;99.90;;;;;;5030010;28;20406;-84
2022/11/10 09:56:02;;;;;;;2.38;1.73;;;12.60;99.90;;;;;;5062954;28;20441;-82
2022/11/10 09:58:39;;;;;;;4.82;1.98;;;12.50;99.90;;;;;;5062887;28;20044;-81
2022/11/10 10:01:16;;;;;;;10.80;1.67;;;12.50;99.90;;;;;;5063332;28;20036;-82
2022/11/10 10:04:14;;;;;;;4.90;1.95;;;12.40;99.90;;;;;;5050865;28;20049;-85
2022/11/10 10:07:03;;;;;;;1.60;1.35;;;12.40;99.90;;;;;;5047256;28;20044;-83
2022/11/10 10:09:35;;;;;;;11.10;1.88;;;12.50;99.90;;;;;;5041926;28;20044;-82
2022/11/10 10:12:31;;;;;;;12.10;2.30;;;12.50;99.90;;;;;;5049590;28;20055;-85
2022/11/10 10:15:09;;;;;;;3.72;1.25;;;12.50;99.90;;;;;;5068249;28;20530;-82
2022/11/10 10:17:41;;;;;;;8.98;3.20;;;12.60;99.90;;;;;;5052308;28;20437;-83
2022/11/10 10:20:20;;;;;;;3.15;1.52;;;12.60;99.90;;;;;;5031076;28;20127;-82
2022/11/10 10:22:55;;;;;;;5.65;2.17;;;12.50;99.90;;;;;;5068958;28;20052;-82
2022/11/10 10:25:26;;;;;;;6.25;1.65;;;12.60;99.90;;;;;;5047721;28;20040;-82
2022/11/10 10:28:03;;;;;;;5.03;1.07;;;12.60;99.90;;;;;;5049789;28;20044;-82
2022/11/10 10:30:29;;;;;;;8.40;2.17;;;12.70;99.90;;;;;;5066704;28;20294;-80
2022/11/10 10:33:07;;;;;;;5.45;2.13;;;12.80;99.90;;;;;;5048914;28;20494;-81
2022/11/10 10:35:33;;;;;;;6.50;1.38;;;12.80;99.90;;;;;;5067977;28;20045;-79
2022/11/10 10:38:00;;;;;;;5.10;1.33;;;12.90;99.90;;;;;;5067525;28;20048;-79
2022/11/10 10:40:26;;;;;;;5.18;2.08;;;13.00;99.90;;;;;;5045134;28;20040;-81
2022/11/10 10:42:52;;;;;;;8.30;1.80;;;13.10;99.90;;;;;;5031943;28;20041;-80
2022/11/10 10:45:22;;;;;;;3.88;1.23;;;13.20;99.90;;;;;;5051764;28;20118;-80
2022/11/10 10:47:50;;;;;;;4.22;1.10;;;13.30;99.90;;;;;;5069342;28;20161;-81
2022/11/10 10:50:28;;;;;;;5.25;2.22;;;13.30;99.90;;;;;;5046388;28;20055;-81
2022/11/10 10:53:16;;;;;;;6.63;1.90;;;13.40;99.90;;;;;;5036572;28;20056;-82
2022/11/10 10:55:49;;;;;;;5.90;1.90;;;13.40;99.90;;;;;;5068305;28;20052;-82
2022/11/10 10:58:25;;;;;;;3.08;1.83;;;13.40;99.90;;;;;;5054607;28;20091;-83
2022/11/10 11:01:01;;;;;;;8.25;1.60;;;13.40;99.90;;;;;;5066039;28;20048;-81
2022/11/10 11:03:39;;;;;;;2.97;1.67;;;13.40;99.90;;;;;;5063099;28;20048;-80
2022/11/10 11:06:16;;;;;;;4.38;1.15;;;13.60;99.90;;;;;;5065109;28;20047;-81
2022/11/10 11:09:07;;;;;;;7.70;1.95;;;13.70;99.90;;;;;;5063520;28;20056;-82
2022/11/10 11:11:35;;;;;;;4.00;1.17;;;13.70;99.90;;;;;;5046344;28;20445;-83
2022/11/10 11:14:19;;;;;;;6.07;1.30;;;13.80;99.90;;;;;;5066943;28;20044;-81
2022/11/10 11:16:51;;;;;;;6.30;1.83;;;13.80;99.90;;;;;;5051162;28;20053;-80
2022/11/10 11:19:19;;;;;;;8.77;1.67;;;13.80;99.90;;;;;;5047390;28;20144;-81
2022/11/10 11:22:03;;;;;;;8.55;1.77;;;13.80;99.90;;;;;;5064347;28;20109;-80
2022/11/10 11:24:44;;;;;;;3.03;0.70;;;13.90;99.90;;;;;;5068440;28;20081;-82
2022/11/10 11:27:15;;;;;;;11.23;1.50;;;13.90;99.90;;;;;;5060232;28;20072;-80
2022/11/10 11:30:02;;;;;;;14.98;1.63;;;14.00;99.90;;;;;;5069813;28;20045;-80
2022/11/10 11:33:09;;;;;;;3.17;0.98;;;14.10;99.90;;;;;;5064406;28;20076;-80
2022/11/10 11:36:09;;;;;;;6.65;1.10;;;14.20;99.90;;;;;;5033002;28;20160;-82
2022/11/10 11:39:02;;;;;;;2.95;1.23;;;14.20;99.90;;;;;;5046941;28;20126;-84
2022/11/10 11:42:06;;;;;;;4.25;1.17;;;14.30;99.90;;;;;;5034252;28;20052;-82
2022/11/10 11:44:51;;;;;;;13.57;1.63;;;14.30;99.90;;;;;;5010588;28;20056;-82
2022/11/10 11:47:39;;;;;;;3.80;1.25;;;14.30;99.90;;;;;;5047058;28;20049;-82
2022/11/10 11:50:25;;;;;;;3.72;1.13;;;14.40;99.90;;;;;;5028235;28;20048;-83
2022/11/10 11:53:12;;;;;;;4.03;1.52;;;14.40;99.90;;;;;;5067891;28;20042;-82
2022/11/10 11:55:37;;;;;;;8.75;1.35;;;14.40;99.90;;;;;;5049189;28;20040;-82
2022/11/10 11:58:23;;;;;;;9.43;0.98;;;14.40;99.90;;;;;;5051750;28;20111;-83
2022/11/10 12:00:49;;;;;;;2.83;0.65;;;14.40;99.90;;;;;;5034587;28;20056;-81
2022/11/10 12:03:17;;;;;;;11.18;1.50;;;14.40;99.90;;;;;;5050037;28;20045;-81
2022/11/10 12:05:55;;;;;;;4.40;0.80;;;14.40;99.90;;;;;;5050659;28;20059;-81
2022/11/10 12:08:35;;;;;;;5.90;1.40;;;14.50;99.90;;;;;;5043851;28;20126;-81
2022/11/10 12:11:09;;;;;;;6.95;0.60;;;14.40;99.90;;;;;;5062776;28;20051;-85
2022/11/10 12:13:56;;;;;;;10.73;1.10;;;14.40;99.90;;;;;;5066331;28;20048;-82
2022/11/10 12:16:29;;;;;;;3.67;0.65;;;14.40;99.90;;;;;;5022241;28;20045;-80
2022/11/10 12:19:25;;;;;;;10.13;0.90;;;14.40;99.90;;;;;;5042519;28;20044;-82
2022/11/10 12:21:55;;;;;;;9.07;1.40;;;14.40;99.90;;;;;;5047375;28;20486;-80
2022/11/10 12:24:42;;;;;;;4.65;0.70;;;14.40;99.90;;;;;;5049543;28;20480;-80
2022/11/10 12:27:26;;;;;;;11.35;0.70;;;14.40;99.90;;;;;;5067471;28;20044;-81
2022/11/10 12:30:02;;;;;;;3.80;0.52;;;14.40;99.90;;;;;;5068267;28;20487;-81
2022/11/10 12:32:41;;;;;;;5.10;0.57;;;14.40;99.90;;;;;;5041666;28;20499;-82
2022/11/10 12:35:16;;;;;;;4.93;0.70;;;14.30;99.90;;;;;;5066833;28;20048;-81
2022/11/10 12:37:52;;;;;;;3.33;0.70;;;14.30;99.90;;;;;;5069138;28;20044;-81
2022/11/10 12:40:30;;;;;;;2.13;0.52;;;14.20;99.90;;;;;;5047881;28;20377;-81
2022/11/10 12:43:00;;;;;;;5.50;0.65;;;14.30;99.90;;;;;;5061271;28;20476;-81
2022/11/10 12:45:43;;;;;;;2.83;0.47;;;14.30;99.90;;;;;;5046715;28;20057;-81
2022/11/10 12:48:11;;;;;;;3.47;0.57;;;14.30;99.90;;;;;;5044024;28;20044;-81
2022/11/10 12:50:55;;;;;;;4.40;0.70;;;14.30;99.90;;;;;;5068303;28;20055;-80
2022/11/10 12:53:34;;;;;;;11.43;1.52;;;14.30;99.90;;;;;;5024915;28;20088;-81
2022/11/10 12:56:05;;;;;;;4.80;0.82;;;14.40;99.90;;;;;;5065105;28;20052;-81
2022/11/10 12:58:30;;;;;;;4.97;0.98;;;14.50;99.90;;;;;;5070090;28;20049;-82
2022/11/10 13:01:13;;;;;;;4.60;1.08;;;14.60;99.90;;;;;;5061083;28;20041;-81
2022/11/10 13:03:55;;;;;;;6.60;0.82;;;14.60;99.90;;;;;;5061659;28;20040;-81
2022/11/10 13:06:31;;;;;;;0.52;0.50;;;14.50;99.90;;;;;;5060087;28;20045;-80
2022/11/10 13:08:58;;;;;;;3.33;0.65;;;14.50;99.90;;;;;;5058775;28;20055;-83
2022/11/10 13:11:33;;;;;;;4.28;1.05;;;14.50;99.90;;;;;;5042720;28;20046;-81
2022/11/10 13:14:01;;;;;;;5.18;1.05;;;14.50;99.90;;;;;;5048406;28;20079;-80
2022/11/10 13:16:46;;;;;;;4.55;0.70;;;14.50;99.90;;;;;;5045632;28;20044;-80
2022/11/10 13:19:32;;;;;;;9.32;1.92;;;14.40;99.90;;;;;;5041654;28;20536;-80